createdAt,value
2023-03-23T15:58:44.152Z,4.93
2023-03-23T15:59:47.195Z,4.91
2023-03-23T16:00:52.445Z,4.92
2023-03-23T16:01:54.917Z,4.92
2023-03-23T16:03:02.801Z,4.91
2023-03-23T16:04:12.031Z,4.91
2023-03-23T16:05:14.598Z,4.91
2023-03-23T16:06:23.558Z,4.92
2023-03-23T16:07:27.067Z,4.91
2023-03-23T16:08:29.517Z,4.90
2023-03-23T16:09:31.426Z,4.93
2023-03-23T16:10:33.401Z,4.93
2023-03-23T16:11:35.353Z,4.93
2023-03-23T16:12:37.317Z,4.95
2023-03-23T16:13:39.958Z,4.95
2023-03-23T16:14:42.109Z,4.92
2023-03-23T16:15:45.118Z,4.93
2023-03-23T16:16:51.076Z,4.92
2023-03-23T16:17:53.468Z,4.90
2023-03-23T16:18:56.153Z,4.91
2023-03-23T16:19:57.932Z,4.91
2023-03-23T16:20:59.819Z,4.91
2023-03-23T16:22:01.708Z,4.88
2023-03-23T16:23:04.132Z,4.88
2023-03-23T16:24:06.339Z,4.87
2023-03-23T16:25:09.537Z,4.90
2023-03-23T16:26:12.098Z,4.91
2023-03-23T16:27:14.245Z,4.91
2023-03-23T16:28:16.476Z,4.91
2023-03-23T16:29:34.375Z,4.91
2023-03-23T16:30:42.359Z,4.90
2023-03-23T16:31:44.165Z,4.90
2023-03-23T16:32:49.457Z,4.90
2023-03-23T16:33:51.493Z,4.89
2023-03-23T16:35:00.900Z,4.90
2023-03-23T16:36:03.732Z,4.90
2023-03-23T16:37:07.033Z,4.91
2023-03-23T16:38:16.434Z,4.93
2023-03-23T16:39:19.193Z,4.92
2023-03-23T16:40:22.080Z,4.93
2023-03-23T16:41:23.919Z,4.92
2023-03-23T16:42:25.744Z,4.93
2023-03-23T16:43:28.070Z,4.95
2023-03-23T16:44:29.991Z,4.95
2023-03-23T16:45:32.082Z,4.99
2023-03-23T16:46:33.944Z,5.01
2023-03-23T16:47:36.573Z,5.05
2023-03-23T16:48:38.946Z,5.08
2023-03-23T16:49:41.548Z,5.11
2023-03-23T16:50:44.442Z,5.14
2023-03-23T16:51:47.315Z,5.18
2023-03-23T16:52:49.324Z,5.21
2023-03-23T16:53:51.741Z,5.24
2023-03-23T16:54:53.666Z,5.26
2023-03-23T16:55:57.967Z,5.30
2023-03-23T16:57:00.196Z,5.32
2023-03-23T16:58:15.223Z,5.35
2023-03-23T16:59:18.217Z,5.37
2023-03-23T17:00:22.163Z,5.40
2023-03-23T17:01:24.396Z,5.41
2023-03-23T17:02:26.609Z,5.43
2023-03-23T17:03:28.954Z,5.45
2023-03-23T17:04:31.903Z,5.45
2023-03-23T17:05:36.301Z,5.45
2023-03-23T17:06:38.243Z,5.46
2023-03-23T17:07:41.586Z,5.45
2023-03-23T17:08:43.462Z,5.46
2023-03-23T17:09:45.818Z,5.46
2023-03-23T17:10:48.496Z,5.45
2023-03-23T17:11:50.490Z,5.44
2023-03-23T17:12:52.469Z,5.42
2023-03-23T17:13:54.494Z,5.43
2023-03-23T17:14:56.360Z,5.41
2023-03-23T17:15:58.302Z,5.39
2023-03-23T17:17:00.631Z,5.36
2023-03-23T17:18:02.477Z,5.33
2023-03-23T17:19:04.986Z,5.31
2023-03-23T17:20:09.954Z,5.29
2023-03-23T17:21:12.005Z,5.26
2023-03-23T17:22:13.824Z,5.22
2023-03-23T17:23:17.234Z,5.21
2023-03-23T17:24:19.500Z,5.19
2023-03-23T17:25:21.432Z,5.16
2023-03-23T17:26:23.597Z,5.12
2023-03-23T17:27:26.300Z,5.12
2023-03-23T17:28:28.262Z,5.11
2023-03-23T17:29:30.111Z,5.09
2023-03-23T17:30:31.999Z,5.06
2023-03-23T17:31:33.873Z,5.06
2023-03-23T17:32:36.809Z,5.02
2023-03-23T17:33:38.899Z,5.01
2023-03-23T17:34:41.055Z,4.99
2023-03-23T17:35:45.550Z,4.97
2023-03-23T17:36:48.374Z,4.95
2023-03-23T17:37:50.313Z,4.91
2023-03-23T17:38:52.460Z,4.87
2023-03-23T17:39:54.345Z,4.84
2023-03-23T17:40:58.344Z,4.80
2023-03-23T17:42:01.233Z,4.77
2023-03-23T17:43:03.241Z,4.75
2023-03-23T17:44:05.242Z,4.73
2023-03-23T17:45:08.718Z,4.72
2023-03-23T17:46:11.120Z,4.70
2023-03-23T17:47:13.338Z,4.71
2023-03-23T17:48:15.399Z,4.70
2023-03-23T17:49:17.911Z,4.71
2023-03-23T17:50:19.926Z,4.74
2023-03-23T17:51:22.038Z,4.73
2023-03-23T17:52:24.144Z,4.75
2023-03-23T17:53:27.411Z,4.77
2023-03-23T17:54:31.179Z,4.77
2023-03-23T17:55:33.034Z,4.77
2023-03-23T17:56:35.503Z,4.76
2023-03-23T17:57:37.415Z,4.75
2023-03-23T17:58:39.268Z,4.75
2023-03-23T17:59:41.547Z,4.74
2023-03-23T18:00:43.999Z,4.74
2023-03-23T18:01:49.001Z,4.74
2023-03-23T18:02:51.083Z,4.77
2023-03-23T18:03:52.973Z,4.78
2023-03-23T18:04:58.200Z,4.80
2023-03-23T18:06:02.509Z,4.83
2023-03-23T18:07:04.462Z,4.84
2023-03-23T18:08:07.338Z,4.86
2023-03-23T18:09:10.015Z,4.87
2023-03-23T18:10:13.166Z,4.89
2023-03-23T18:11:15.597Z,4.90
2023-03-23T18:12:18.333Z,4.92
2023-03-23T18:13:20.290Z,4.93
2023-03-23T18:14:22.163Z,4.94
2023-03-23T18:15:28.210Z,4.95
2023-03-23T18:16:31.947Z,4.98
2023-03-23T18:17:33.904Z,4.98
2023-03-23T18:18:36.239Z,5.00
2023-03-23T18:19:38.404Z,5.01
2023-03-23T18:20:40.350Z,5.02
2023-03-23T18:21:45.320Z,5.05
2023-03-23T18:22:48.848Z,5.06
2023-03-23T18:23:58.806Z,5.07
2023-03-23T18:25:02.858Z,5.10
2023-03-23T18:26:14.224Z,5.12
2023-03-23T18:27:16.538Z,5.13
2023-03-23T18:28:18.491Z,5.14
2023-03-23T18:29:20.659Z,5.16
2023-03-23T18:30:23.003Z,5.17
2023-03-23T18:31:25.826Z,5.17
2023-03-23T18:32:27.881Z,5.18
2023-03-23T18:33:29.797Z,5.17
2023-03-23T18:34:32.162Z,5.18
2023-03-23T18:35:34.294Z,5.17
2023-03-23T18:36:36.567Z,5.18
2023-03-23T18:37:41.659Z,5.19
2023-03-23T18:38:46.204Z,5.19
2023-03-23T18:39:48.162Z,5.20
2023-03-23T18:40:50.562Z,5.20
2023-03-23T18:41:52.592Z,5.20
2023-03-23T18:42:54.431Z,5.20
2023-03-23T18:43:57.702Z,5.21
2023-03-23T18:45:00.121Z,5.24
2023-03-23T18:46:02.664Z,5.25
2023-03-23T18:47:04.910Z,5.26
2023-03-23T18:48:07.636Z,5.30
2023-03-23T18:49:09.600Z,5.33
2023-03-23T18:50:12.045Z,5.35
2023-03-23T18:51:14.117Z,5.36
2023-03-23T18:52:15.899Z,5.38
2023-03-23T18:53:18.063Z,5.42
2023-03-23T18:54:19.998Z,5.44
2023-03-23T18:55:22.194Z,5.47
2023-03-23T18:56:24.409Z,5.51
2023-03-23T18:57:27.196Z,5.53
2023-03-23T18:58:29.110Z,5.53
2023-03-23T18:59:30.921Z,5.55
2023-03-23T19:00:34.130Z,5.55
2023-03-23T19:01:36.506Z,5.56
2023-03-23T19:02:40.151Z,5.58
2023-03-23T19:03:42.790Z,5.59
2023-03-23T19:04:46.123Z,5.58
2023-03-23T19:05:48.538Z,5.59
2023-03-23T19:06:50.844Z,5.59
2023-03-23T19:07:55.508Z,5.60
2023-03-23T19:08:57.871Z,5.60
2023-03-23T19:09:59.983Z,5.60
2023-03-23T19:11:04.292Z,5.60
2023-03-23T19:12:06.524Z,5.59
2023-03-23T19:13:09.891Z,5.58
2023-03-23T19:14:11.896Z,5.57
2023-03-23T19:15:14.380Z,5.55
2023-03-23T19:16:16.439Z,5.53
2023-03-23T19:17:19.151Z,5.53
2023-03-23T19:18:21.851Z,5.52
2023-03-23T19:19:25.386Z,5.50
2023-03-23T19:20:54.897Z,5.48
2023-03-23T19:21:49.375Z,5.45
2023-03-23T19:22:51.457Z,5.43
2023-03-23T19:23:54.908Z,5.40
2023-03-23T19:24:57.331Z,5.39
2023-03-23T19:25:59.222Z,5.38
2023-03-23T19:27:01.745Z,5.38
2023-03-23T19:30:18.505Z,5.38
2023-03-23T19:31:23.776Z,5.38
2023-03-23T19:32:25.832Z,5.36
2023-03-23T19:33:27.875Z,5.35
2023-03-23T19:34:30.778Z,5.34
2023-03-23T19:35:32.823Z,5.31
2023-03-23T19:36:36.920Z,5.29
2023-03-23T19:37:39.079Z,5.26
2023-03-23T19:38:41.098Z,5.24
2023-03-23T19:39:43.415Z,5.22
2023-03-23T19:40:58.043Z,5.21
2023-03-23T19:42:00.568Z,5.20
2023-03-23T19:44:08.026Z,5.16
2023-03-23T19:45:09.939Z,5.15
2023-03-23T19:46:12.055Z,5.14
2023-03-23T19:47:14.568Z,5.11
2023-03-23T19:48:17.819Z,5.09
2023-03-23T19:50:22.019Z,5.05
2023-03-23T19:51:24.136Z,5.04
2023-03-23T19:52:26.813Z,5.03
2023-03-23T19:53:28.990Z,5.00
2023-03-23T19:54:31.635Z,4.98
2023-03-23T19:55:33.430Z,4.97
2023-03-23T19:56:36.359Z,4.94
2023-03-23T19:57:39.219Z,4.92
2023-03-23T19:58:41.661Z,4.90
2023-03-23T19:59:44.298Z,4.88
2023-03-23T20:00:46.393Z,4.87
2023-03-23T20:01:50.829Z,4.91
2023-03-23T20:02:52.661Z,4.87
2023-03-23T20:03:57.230Z,4.85
2023-03-23T20:05:01.456Z,4.83
2023-03-23T20:06:07.137Z,4.81
2023-03-23T20:07:09.059Z,4.80
2023-03-23T20:08:11.188Z,4.79
2023-03-23T20:09:13.454Z,4.78
2023-03-23T20:10:15.479Z,4.78
2023-03-23T20:11:19.357Z,4.77
2023-03-23T20:12:21.280Z,4.75
2023-03-23T20:13:23.135Z,4.75
2023-03-23T20:14:25.785Z,4.73
2023-03-23T20:15:28.508Z,4.74
2023-03-23T20:16:31.332Z,4.73
2023-03-23T20:17:33.849Z,4.71
2023-03-23T20:18:37.270Z,4.71
2023-03-23T20:19:40.330Z,4.70
2023-03-23T20:20:42.408Z,4.68
2023-03-23T20:21:45.201Z,4.67
2023-03-23T20:22:48.134Z,4.66
2023-03-23T20:23:52.856Z,4.66
2023-03-23T20:24:54.701Z,4.64
2023-03-23T20:26:03.646Z,4.63
2023-03-23T20:27:07.068Z,4.65
2023-03-23T20:28:08.998Z,4.63
2023-03-23T20:29:11.119Z,4.62
2023-03-23T20:30:13.884Z,4.63
2023-03-23T20:31:28.202Z,4.63
2023-03-23T20:32:33.226Z,4.64
2023-03-23T20:33:35.625Z,4.62
2023-03-23T20:34:37.633Z,4.63
2023-03-23T20:35:40.235Z,4.61
2023-03-23T20:36:45.348Z,4.61
2023-03-23T20:37:50.662Z,4.62
2023-03-23T20:38:52.743Z,4.63
2023-03-23T20:39:55.393Z,4.64
2023-03-23T20:40:57.799Z,4.62
2023-03-23T20:42:06.108Z,4.63
2023-03-23T20:43:10.780Z,4.62
2023-03-23T20:44:14.093Z,4.60
2023-03-23T20:45:16.674Z,4.59
2023-03-23T20:46:19.244Z,4.58
2023-03-23T20:47:21.203Z,4.58
2023-03-23T20:48:25.307Z,4.59
2023-03-23T20:49:27.794Z,4.60
2023-03-23T20:50:29.621Z,4.59
2023-03-23T20:51:32.947Z,4.61
2023-03-23T20:52:35.467Z,4.63
2023-03-23T20:53:38.909Z,4.63
2023-03-23T20:54:41.262Z,4.65
2023-03-23T20:55:43.756Z,4.65
2023-03-23T20:56:47.072Z,4.66
2023-03-23T20:57:49.479Z,4.66
2023-03-23T20:58:52.193Z,4.64
2023-03-23T20:59:55.436Z,4.65
2023-03-23T21:00:58.908Z,4.64
2023-03-23T21:02:01.345Z,4.65
2023-03-23T21:03:03.159Z,4.63
2023-03-23T21:04:05.179Z,4.65
2023-03-23T21:05:07.050Z,4.65
2023-03-23T21:06:10.414Z,4.66
2023-03-23T21:07:16.118Z,4.68
2023-03-23T21:08:19.107Z,4.69
2023-03-23T21:09:21.263Z,4.70
2023-03-23T21:10:25.795Z,4.71
2023-03-23T21:11:28.007Z,4.69
2023-03-23T21:12:29.961Z,4.69
2023-03-23T21:13:32.105Z,4.70
2023-03-23T21:14:34.431Z,4.69
2023-03-23T21:15:36.852Z,4.69
2023-03-23T21:16:39.797Z,4.71
2023-03-23T21:17:42.109Z,4.70
2023-03-23T21:18:44.550Z,4.70
2023-03-23T21:19:47.222Z,4.70
2023-03-23T21:20:50.664Z,4.70
2023-03-23T21:21:56.253Z,4.72
2023-03-23T21:23:00.118Z,4.71
2023-03-23T21:24:02.923Z,4.73
2023-03-23T21:25:05.078Z,4.73
2023-03-23T21:26:09.683Z,4.74
2023-03-23T21:27:12.095Z,4.73
2023-03-23T21:28:14.338Z,4.72
2023-03-23T21:29:16.346Z,4.73
2023-03-23T21:30:19.360Z,4.71
2023-03-23T21:31:23.657Z,4.71
2023-03-23T21:32:26.605Z,4.72
2023-03-23T21:33:28.737Z,4.74
2023-03-23T21:34:30.711Z,4.75
2023-03-23T21:35:32.559Z,4.77
2023-03-23T21:36:35.588Z,4.78
2023-03-23T21:37:38.033Z,4.79
2023-03-23T21:38:40.759Z,4.80
2023-03-23T21:39:42.817Z,4.82
2023-03-23T21:40:44.895Z,4.84
2023-03-23T21:41:49.777Z,4.84
2023-03-23T21:42:53.380Z,4.85
2023-03-23T21:43:55.347Z,4.86
2023-03-23T21:44:58.226Z,4.86
2023-03-23T21:46:03.895Z,4.85
2023-03-23T21:47:06.597Z,4.86
2023-03-23T21:48:09.255Z,4.87
2023-03-23T21:49:14.299Z,4.90
2023-03-23T21:50:17.013Z,4.92
2023-03-23T21:51:23.056Z,4.94
2023-03-23T21:52:28.203Z,4.95
2023-03-23T21:53:31.077Z,4.97
2023-03-23T21:54:34.368Z,4.98
2023-03-23T21:55:36.634Z,4.99
2023-03-23T21:56:38.557Z,4.98
2023-03-23T21:57:40.716Z,4.98
2023-03-23T21:58:43.024Z,5.00
2023-03-23T21:59:44.935Z,4.99
2023-03-23T22:00:47.580Z,5.01
2023-03-23T22:01:49.909Z,5.01
2023-03-23T22:02:53.306Z,5.02
2023-03-23T22:03:55.102Z,5.02
2023-03-23T22:04:57.130Z,5.02
2023-03-23T22:06:05.512Z,5.01
2023-03-23T22:07:08.128Z,5.01
2023-03-23T22:08:10.024Z,5.02
2023-03-23T22:09:12.166Z,5.03
2023-03-23T22:10:14.570Z,5.06
2023-03-23T22:11:19.893Z,5.07
2023-03-23T22:12:22.013Z,5.08
2023-03-23T22:13:23.866Z,5.08
2023-03-23T22:14:26.613Z,5.12
2023-03-23T22:15:29.583Z,5.12
2023-03-23T22:16:31.900Z,5.14
2023-03-23T22:17:34.546Z,5.15
2023-03-23T22:18:38.158Z,5.17
2023-03-23T22:19:40.057Z,5.17
2023-03-23T22:20:42.257Z,5.19
2023-03-23T22:21:44.400Z,5.19
2023-03-23T22:22:46.380Z,5.20
2023-03-23T22:23:49.275Z,5.18
2023-03-23T22:24:52.000Z,5.19
2023-03-23T22:25:54.517Z,5.19
2023-03-23T22:26:56.697Z,5.20
2023-03-23T22:27:58.574Z,5.21
2023-03-23T22:29:01.433Z,5.21
2023-03-23T22:30:04.161Z,5.23
2023-03-23T22:31:12.055Z,5.22
2023-03-23T22:32:14.223Z,5.21
2023-03-23T22:33:17.862Z,5.21
2023-03-23T22:34:19.867Z,5.19
2023-03-23T22:35:22.051Z,5.19
2023-03-23T22:36:26.365Z,5.18
2023-03-23T22:37:28.274Z,5.18
2023-03-23T22:38:30.702Z,5.16
2023-03-23T22:39:32.561Z,5.14
2023-03-23T22:40:35.000Z,5.10
2023-03-23T22:41:40.192Z,5.09
2023-03-23T22:42:42.226Z,5.06
2023-03-23T22:43:44.153Z,5.02
2023-03-23T22:44:46.523Z,5.02
2023-03-23T22:45:53.531Z,5.00
2023-03-23T22:46:55.897Z,4.97
2023-03-23T22:47:58.207Z,4.95
2023-03-23T22:49:00.268Z,4.93
2023-03-23T22:50:02.167Z,4.90
2023-03-23T22:51:05.762Z,4.87
2023-03-23T22:52:07.747Z,4.85
2023-03-23T22:53:09.773Z,4.82
2023-03-23T22:54:11.925Z,4.81
2023-03-23T22:55:14.893Z,4.78
2023-03-23T22:56:17.492Z,4.78
2023-03-23T22:57:19.441Z,4.79
2023-03-23T22:58:22.016Z,4.78
2023-03-23T22:59:23.894Z,4.79
2023-03-23T23:00:26.442Z,4.79
2023-03-23T23:01:28.543Z,4.77
2023-03-23T23:02:30.780Z,4.76
2023-03-23T23:03:34.042Z,4.74
2023-03-23T23:04:37.139Z,4.72
2023-03-23T23:05:48.648Z,4.72
2023-03-23T23:06:55.369Z,4.70
2023-03-23T23:08:02.900Z,4.69
2023-03-23T23:09:05.188Z,4.72
2023-03-23T23:10:08.082Z,4.72
2023-03-23T23:11:13.093Z,4.72
2023-03-23T23:12:15.489Z,4.70
2023-03-23T23:13:17.908Z,4.71
2023-03-23T23:14:19.846Z,4.70
2023-03-23T23:15:22.402Z,4.71
2023-03-23T23:16:26.434Z,4.71
2023-03-23T23:17:30.070Z,4.71
2023-03-23T23:18:33.363Z,4.72
2023-03-23T23:19:35.280Z,4.70
2023-03-23T23:20:37.371Z,4.69
2023-03-23T23:21:39.260Z,4.70
2023-03-23T23:22:43.121Z,4.70
2023-03-23T23:23:46.636Z,4.68
2023-03-23T23:24:48.678Z,4.68
2023-03-23T23:25:51.632Z,4.65
2023-03-23T23:26:53.501Z,4.64
2023-03-23T23:27:56.469Z,4.61
2023-03-23T23:28:58.410Z,4.59
2023-03-23T23:30:00.689Z,4.58
2023-03-23T23:31:02.853Z,4.56
2023-03-23T23:32:04.990Z,4.54
2023-03-23T23:33:07.646Z,4.53
2023-03-23T23:34:12.779Z,4.51
2023-03-23T23:35:14.760Z,4.48
2023-03-23T23:36:18.198Z,4.47
2023-03-23T23:37:20.035Z,4.46
2023-03-23T23:38:22.044Z,4.43
2023-03-23T23:39:24.279Z,4.42
2023-03-23T23:40:26.208Z,4.41
2023-03-23T23:41:30.001Z,4.39
2023-03-23T23:42:32.024Z,4.38
2023-03-23T23:43:34.099Z,4.37
2023-03-23T23:44:36.352Z,4.35
2023-03-23T23:45:39.000Z,4.35
2023-03-23T23:46:41.274Z,4.34
2023-03-23T23:47:43.425Z,4.33
2023-03-23T23:48:46.593Z,4.32
2023-03-23T23:49:49.100Z,4.32
2023-03-23T23:50:51.837Z,4.32
2023-03-23T23:51:54.332Z,4.31
2023-03-23T23:52:56.352Z,4.30
2023-03-23T23:53:59.306Z,4.31
2023-03-23T23:55:01.698Z,4.30
2023-03-23T23:56:04.692Z,4.31
2023-03-23T23:57:06.683Z,4.33
2023-03-23T23:58:08.590Z,4.33
2023-03-23T23:59:10.465Z,4.35
